createdAt,value
2022-12-29T07:08:47.612Z,7.24
2022-12-29T07:11:25.104Z,7.27
2022-12-29T07:14:02.041Z,7.27
2022-12-29T07:16:39.405Z,7.28
2022-12-29T07:19:16.390Z,7.28
2022-12-29T07:21:54.412Z,7.31
2022-12-29T07:24:33.931Z,7.32
2022-12-29T07:27:11.532Z,7.32
2022-12-29T07:29:48.424Z,7.31
2022-12-29T07:32:25.794Z,7.32
2022-12-29T07:35:02.742Z,7.35
2022-12-29T07:37:39.992Z,7.38
2022-12-29T07:40:19.880Z,7.43
2022-12-29T07:42:57.051Z,7.44
2022-12-29T07:45:42.881Z,7.46
2022-12-29T07:48:20.102Z,7.46
2022-12-29T07:50:57.744Z,7.48
2022-12-29T07:53:35.144Z,7.49
2022-12-29T07:56:14.841Z,7.52
2022-12-29T07:58:52.362Z,7.52
2022-12-29T08:01:29.901Z,7.55
2022-12-29T08:04:08.018Z,7.53
2022-12-29T08:06:46.733Z,7.56
2022-12-29T08:09:24.551Z,7.60
2022-12-29T08:12:04.406Z,7.60
2022-12-29T08:14:42.099Z,7.58
2022-12-29T08:17:18.980Z,7.64
2022-12-29T08:19:56.304Z,7.63
2022-12-29T08:22:33.082Z,7.68
2022-12-29T08:25:11.381Z,7.70
2022-12-29T08:27:50.871Z,7.74
2022-12-29T08:30:28.126Z,7.73
2022-12-29T08:33:05.089Z,7.77
2022-12-29T08:35:42.383Z,7.78
2022-12-29T08:38:19.337Z,7.77
2022-12-29T08:40:57.028Z,7.80
2022-12-29T08:43:36.905Z,7.81
2022-12-29T08:46:14.362Z,7.81
2022-12-29T08:48:51.544Z,7.83
2022-12-29T08:51:29.021Z,7.85
2022-12-29T08:54:06.098Z,7.86
2022-12-29T08:56:43.409Z,7.86
2022-12-29T08:59:23.270Z,7.88
2022-12-29T09:02:03.021Z,7.89
2022-12-29T09:04:40.297Z,7.90
2022-12-29T09:07:17.724Z,7.88
2022-12-29T09:09:54.809Z,7.93
2022-12-29T09:12:36.336Z,7.92
2022-12-29T09:15:16.940Z,7.94
2022-12-29T09:17:54.359Z,7.95
2022-12-29T09:20:31.380Z,7.95
2022-12-29T09:23:10.277Z,7.96
2022-12-29T09:25:47.416Z,7.99
2022-12-29T09:28:25.077Z,7.99
2022-12-29T09:31:05.661Z,7.98
2022-12-29T09:33:43.257Z,8.07
2022-12-29T09:36:20.222Z,8.07
2022-12-29T09:38:58.732Z,8.12
2022-12-29T09:41:43.341Z,8.13
2022-12-29T09:44:30.515Z,8.18
2022-12-29T09:47:14.961Z,8.19
2022-12-29T09:49:57.474Z,8.25
2022-12-29T09:52:40.510Z,8.25
2022-12-29T09:55:22.109Z,8.30
2022-12-29T09:58:04.393Z,8.30
2022-12-29T10:00:55.201Z,8.36
2022-12-29T10:03:51.389Z,8.42
2022-12-29T10:06:41.344Z,8.43
2022-12-29T10:09:50.650Z,8.44
2022-12-29T10:12:41.782Z,8.52
2022-12-29T10:15:33.819Z,8.48
2022-12-29T10:18:28.423Z,8.53
2022-12-29T10:21:19.174Z,8.57
2022-12-29T10:23:58.513Z,8.60
2022-12-29T10:26:42.228Z,8.61
2022-12-29T10:29:23.488Z,8.65
2022-12-29T10:32:06.504Z,8.73
2022-12-29T10:34:49.472Z,8.77
2022-12-29T10:37:41.353Z,8.81
2022-12-29T10:40:29.090Z,8.84
2022-12-29T10:43:21.139Z,8.88
2022-12-29T10:46:03.023Z,8.91
2022-12-29T10:48:40.735Z,8.94
2022-12-29T10:51:26.056Z,9.04
2022-12-29T10:54:14.987Z,9.05
2022-12-29T10:56:58.227Z,9.08
2022-12-29T10:59:38.241Z,9.10
2022-12-29T11:02:47.833Z,9.11
2022-12-29T11:05:35.439Z,9.11
2022-12-29T11:08:18.632Z,9.10
2022-12-29T11:11:07.825Z,9.14
2022-12-29T11:13:53.954Z,9.15
2022-12-29T11:16:37.445Z,9.15
2022-12-29T11:19:27.189Z,9.16
2022-12-29T11:22:24.923Z,9.14
2022-12-29T11:25:17.275Z,9.16
2022-12-29T11:28:18.755Z,9.16
2022-12-29T11:31:05.781Z,9.21
2022-12-29T11:33:43.635Z,9.21
2022-12-29T11:36:25.400Z,9.23
2022-12-29T11:39:02.381Z,9.25
2022-12-29T11:41:39.747Z,9.23
2022-12-29T11:44:19.416Z,9.26
2022-12-29T11:46:58.392Z,9.23
2022-12-29T11:49:35.546Z,9.24
2022-12-29T11:52:13.160Z,9.28
2022-12-29T11:54:50.114Z,9.28
2022-12-29T11:57:28.768Z,9.31
2022-12-29T12:00:20.637Z,9.34
2022-12-29T12:03:05.074Z,9.34
2022-12-29T12:05:51.695Z,9.31
2022-12-29T12:08:40.222Z,9.32
2022-12-29T12:11:22.862Z,9.31
2022-12-29T12:14:06.857Z,9.35
2022-12-29T12:17:15.980Z,9.37
2022-12-29T12:20:02.603Z,9.36
2022-12-29T12:22:43.393Z,9.36
2022-12-29T12:25:26.034Z,9.35
2022-12-29T12:28:08.709Z,9.31
2022-12-29T12:30:51.458Z,9.39
2022-12-29T12:33:35.862Z,9.41
2022-12-29T12:36:50.738Z,9.42
2022-12-29T12:39:37.826Z,9.42
2022-12-29T12:42:36.018Z,9.45
2022-12-29T12:45:47.264Z,9.47
2022-12-29T12:49:08.277Z,9.50
2022-12-29T12:51:59.483Z,9.46
2022-12-29T12:55:07.782Z,9.49
2022-12-29T12:57:58.817Z,9.44
2022-12-29T13:00:44.325Z,9.43
2022-12-29T13:03:36.049Z,9.43
2022-12-29T13:06:30.394Z,9.42
2022-12-29T13:09:42.881Z,9.45
2022-12-29T13:12:36.122Z,9.48
2022-12-29T13:15:35.046Z,9.51
2022-12-29T13:18:26.227Z,9.49
2022-12-29T13:21:10.720Z,9.51
2022-12-29T13:24:00.351Z,9.47
2022-12-29T13:26:42.291Z,9.46
2022-12-29T13:29:27.827Z,9.50
2022-12-29T13:32:25.062Z,9.57
2022-12-29T13:35:45.591Z,9.56
2022-12-29T13:38:28.551Z,9.55
2022-12-29T13:41:13.154Z,9.54
2022-12-29T13:43:52.344Z,9.55
2022-12-29T13:46:37.695Z,9.52
2022-12-29T13:49:21.371Z,9.52
2022-12-29T13:52:02.083Z,9.56
2022-12-29T13:54:50.700Z,9.58
2022-12-29T13:57:44.220Z,9.52
2022-12-29T14:00:24.829Z,9.53
2022-12-29T14:03:30.903Z,9.44
2022-12-29T14:06:27.061Z,9.41
2022-12-29T14:09:07.004Z,9.37
2022-12-29T14:11:45.705Z,9.37
2022-12-29T14:14:29.128Z,9.35
2022-12-29T14:17:16.064Z,9.35
2022-12-29T14:19:58.084Z,9.36
2022-12-29T14:22:35.781Z,9.30
2022-12-29T14:26:13.604Z,9.36
2022-12-29T14:28:53.061Z,9.27
2022-12-29T14:31:42.490Z,9.30
2022-12-29T14:34:48.794Z,9.29
2022-12-29T14:37:32.254Z,9.28
2022-12-29T14:40:23.573Z,9.26
2022-12-29T14:43:01.757Z,9.24
2022-12-29T14:45:40.419Z,9.25
2022-12-29T14:48:48.033Z,9.23
2022-12-29T14:51:36.088Z,9.22
2022-12-29T14:54:51.801Z,9.21
2022-12-29T14:57:43.660Z,9.21
2022-12-29T15:00:27.513Z,9.19
2022-12-29T15:03:09.842Z,9.22
2022-12-29T15:05:53.145Z,9.20
2022-12-29T15:08:34.681Z,9.19
2022-12-29T15:11:19.812Z,9.19
2022-12-29T15:13:57.088Z,9.19
2022-12-29T15:16:38.194Z,9.21
2022-12-29T15:19:27.707Z,9.17
2022-12-29T15:22:07.699Z,9.17
2022-12-29T15:24:47.102Z,9.16
2022-12-29T15:27:27.961Z,9.14
2022-12-29T15:30:13.919Z,9.13
2022-12-29T15:32:55.965Z,9.10
2022-12-29T15:35:36.927Z,9.13
2022-12-29T15:38:32.236Z,9.09
2022-12-29T15:41:25.139Z,9.08
2022-12-29T15:44:16.482Z,9.06
2022-12-29T15:46:53.625Z,9.07
2022-12-29T15:49:32.588Z,9.06
2022-12-29T15:52:13.307Z,9.09
2022-12-29T15:54:56.988Z,9.07
2022-12-29T15:57:41.212Z,9.08
2022-12-29T16:00:29.641Z,9.09
2022-12-29T16:03:09.476Z,9.10
2022-12-29T16:05:53.816Z,9.11
2022-12-29T16:08:41.184Z,9.13
2022-12-29T16:11:31.837Z,9.13
2022-12-29T16:14:16.725Z,9.14
2022-12-29T16:16:56.949Z,9.17
2022-12-29T16:19:38.010Z,9.16
2022-12-29T16:22:21.826Z,9.19
2022-12-29T16:25:05.108Z,9.26
2022-12-29T16:27:47.656Z,9.34
2022-12-29T16:30:33.122Z,9.36
2022-12-29T16:33:43.999Z,9.39
2022-12-29T16:36:37.046Z,9.42
2022-12-29T16:39:28.748Z,9.44
2022-12-29T16:42:26.029Z,9.50
2022-12-29T16:45:42.018Z,9.55
2022-12-29T16:48:25.606Z,9.56
2022-12-29T16:51:09.975Z,9.55
2022-12-29T16:53:53.717Z,9.60
2022-12-29T16:56:34.246Z,9.60
2022-12-29T16:59:21.239Z,9.64
2022-12-29T17:02:03.627Z,9.69
2022-12-29T17:04:40.975Z,9.72
2022-12-29T17:07:22.450Z,9.81
2022-12-29T17:09:59.759Z,9.84
2022-12-29T17:12:39.735Z,9.87
2022-12-29T17:15:25.682Z,9.91
2022-12-29T17:18:10.176Z,9.89
2022-12-29T17:20:50.473Z,9.92
2022-12-29T17:23:27.974Z,9.92
2022-12-29T17:26:05.887Z,9.90
2022-12-29T17:28:43.387Z,9.92
2022-12-29T17:31:20.710Z,9.89
2022-12-29T17:34:01.553Z,9.85
2022-12-29T17:36:38.469Z,9.81
2022-12-29T17:39:16.029Z,9.75
2022-12-29T17:41:53.365Z,9.72
2022-12-29T17:44:30.933Z,9.71
2022-12-29T17:47:08.236Z,9.63
2022-12-29T17:49:48.829Z,9.61
2022-12-29T17:52:26.159Z,9.56
2022-12-29T17:55:03.678Z,9.53
2022-12-29T17:57:41.018Z,9.47
2022-12-29T18:00:24.558Z,9.43
2022-12-29T18:03:02.647Z,9.40
2022-12-29T18:05:43.276Z,9.35
2022-12-29T18:08:21.306Z,9.35
2022-12-29T18:11:00.178Z,9.33
2022-12-29T18:13:45.799Z,9.30
2022-12-29T18:16:24.907Z,9.30
2022-12-29T18:19:02.078Z,9.23
2022-12-29T18:21:48.870Z,9.22
2022-12-29T18:24:26.481Z,9.18
2022-12-29T18:27:05.717Z,9.16
2022-12-29T18:29:43.095Z,9.16
2022-12-29T18:32:21.673Z,9.17
2022-12-29T18:34:59.058Z,9.12
2022-12-29T18:37:39.403Z,9.12
2022-12-29T18:40:17.357Z,9.09
2022-12-29T18:42:54.832Z,9.09
2022-12-29T18:45:34.959Z,9.10
2022-12-29T18:48:12.565Z,9.11
2022-12-29T18:50:52.373Z,9.03
2022-12-29T18:53:37.993Z,9.03
2022-12-29T18:56:15.162Z,9.01
2022-12-29T18:58:55.058Z,9.01
2022-12-29T19:01:35.137Z,9.03
2022-12-29T19:04:18.429Z,9.02
2022-12-29T19:06:58.233Z,9.02
2022-12-29T19:09:40.617Z,9.00
2022-12-29T19:12:26.457Z,8.98
2022-12-29T19:15:11.120Z,8.98
2022-12-29T19:18:16.013Z,8.96
2022-12-29T19:20:54.637Z,8.95
2022-12-29T19:23:35.201Z,8.94
2022-12-29T19:26:39.592Z,8.93
2022-12-29T19:29:23.208Z,8.88
2022-12-29T19:32:05.455Z,8.88
2022-12-29T19:34:49.177Z,8.87
2022-12-29T19:37:29.747Z,8.84
2022-12-29T19:40:13.064Z,8.84
2022-12-29T19:42:57.919Z,8.82
2022-12-29T19:45:38.062Z,8.83
2022-12-29T19:48:23.405Z,8.81
2022-12-29T19:51:20.062Z,8.78
2022-12-29T19:54:04.868Z,8.77
2022-12-29T19:56:50.392Z,8.75
2022-12-29T19:59:34.923Z,8.76
2022-12-29T20:02:24.931Z,8.72
2022-12-29T20:05:06.197Z,8.73
2022-12-29T20:07:48.829Z,8.70
2022-12-29T20:10:31.331Z,8.73
2022-12-29T20:13:11.718Z,8.73
2022-12-29T20:16:04.458Z,8.75
2022-12-29T20:18:45.511Z,8.75
2022-12-29T20:21:29.935Z,8.74
2022-12-29T20:24:12.152Z,8.73
2022-12-29T20:26:56.006Z,8.75
2022-12-29T20:29:40.162Z,8.73
2022-12-29T20:32:27.614Z,8.71
2022-12-29T20:35:07.289Z,8.73
2022-12-29T20:37:48.762Z,8.75
2022-12-29T20:40:29.379Z,8.73
2022-12-29T20:43:10.964Z,8.74
2022-12-29T20:45:54.380Z,8.77
2022-12-29T20:48:39.705Z,8.80
2022-12-29T20:51:20.604Z,8.80
2022-12-29T20:54:01.156Z,8.82
2022-12-29T20:56:40.768Z,8.82
2022-12-29T20:59:28.840Z,8.83
2022-12-29T21:02:10.173Z,8.86
2022-12-29T21:07:55.292Z,8.88
2022-12-29T21:10:36.437Z,8.85
2022-12-29T21:13:17.624Z,8.87
2022-12-29T21:16:04.227Z,8.85
2022-12-29T21:18:44.654Z,8.84
2022-12-29T21:21:28.895Z,8.83
2022-12-29T21:24:09.155Z,8.83
2022-12-29T21:26:49.497Z,8.87
2022-12-29T21:29:28.387Z,8.87
2022-12-29T21:32:09.793Z,8.91
2022-12-29T21:34:51.245Z,8.89
2022-12-29T21:37:34.480Z,8.92
2022-12-29T21:40:15.380Z,8.91
2022-12-29T21:42:56.308Z,8.93
2022-12-29T21:45:36.069Z,8.94
2022-12-29T21:48:29.648Z,8.97
2022-12-29T21:51:30.431Z,8.96
2022-12-29T21:54:27.323Z,8.97
2022-12-29T21:57:06.333Z,9.00
2022-12-29T21:59:58.094Z,9.01
2022-12-29T22:02:49.760Z,9.07
2022-12-29T22:05:41.912Z,9.01
2022-12-29T22:08:34.705Z,9.06
2022-12-29T22:11:29.123Z,9.08
2022-12-29T22:14:09.273Z,9.11
2022-12-29T22:16:49.482Z,9.14
2022-12-29T22:19:29.263Z,9.12
2022-12-29T22:22:09.263Z,9.15
2022-12-29T22:24:48.761Z,9.17
2022-12-29T22:27:32.036Z,9.22
2022-12-29T22:30:12.887Z,9.26
2022-12-29T22:32:54.457Z,9.25
2022-12-29T22:35:35.418Z,9.30
2022-12-29T22:38:16.301Z,9.30
2022-12-29T22:40:55.848Z,9.36
2022-12-29T22:43:38.584Z,9.38
2022-12-29T22:46:18.618Z,9.35
2022-12-29T22:49:00.999Z,9.35
2022-12-29T22:51:41.156Z,9.35
2022-12-29T22:54:21.289Z,9.32
2022-12-29T22:57:00.154Z,9.30
2022-12-29T22:59:42.457Z,9.28
